Time;durP1;ratioP1;P1;durP2;ratioP2;P2;SDS_P1;SDS_P2;PMS_P1;PMS_P2;Temp;Humidity;BMP_temperature;BMP_pressure;BME280_temperature;BME280_humidity;BME280_pressure;Samples;Min_cycle;Max_cycle;Signal;HPM_P1;HPM_P2
2021/04/22 00:00:34;;;;;;;14.35;3.03;;;4.00;94.50;;;;;;5039302;28;20100;-70
2021/04/22 00:06:55;;;;;;;11.18;2.30;;;4.10;94.00;;;;;;5037988;28;20139;-70
2021/04/22 00:09:23;;;;;;;11.85;3.15;;;4.10;93.50;;;;;;5037540;28;20311;-70
2021/04/22 00:11:51;;;;;;;15.48;2.30;;;4.20;93.40;;;;;;5020459;28;20083;-70
2021/04/22 00:14:18;;;;;;;16.10;3.17;;;4.20;93.20;;;;;;5038320;28;20021;-70
2021/04/22 00:16:46;;;;;;;15.68;3.80;;;4.20;93.20;;;;;;5020160;28;20026;-70
2021/04/22 00:19:14;;;;;;;19.13;2.97;;;4.20;93.30;;;;;;5038256;28;20130;-70
2021/04/22 00:21:42;;;;;;;28.20;3.28;;;4.20;93.50;;;;;;5037884;28;20025;-70
2021/04/22 00:24:10;;;;;;;15.02;2.97;;;4.20;93.60;;;;;;5039213;28;20021;-70
2021/04/22 00:26:39;;;;;;;17.38;2.97;;;4.20;93.20;;;;;;5021014;28;20333;-70
2021/04/22 00:29:07;;;;;;;9.10;2.97;;;4.20;93.00;;;;;;5038857;28;20029;-70
2021/04/22 00:31:35;;;;;;;21.40;3.25;;;4.20;92.60;;;;;;5039121;28;20024;-70
2021/04/22 00:34:04;;;;;;;10.70;2.47;;;4.20;92.00;;;;;;5038896;28;20048;-70
2021/04/22 00:36:32;;;;;;;12.50;2.90;;;4.30;92.10;;;;;;5038488;28;20026;-70
2021/04/22 00:39:00;;;;;;;12.70;3.28;;;4.30;92.40;;;;;;5038230;28;20025;-70
2021/04/22 00:41:28;;;;;;;13.98;3.20;;;4.30;92.20;;;;;;5038337;28;20022;-70
2021/04/22 00:43:56;;;;;;;30.80;3.58;;;4.30;92.00;;;;;;5019678;28;20307;-70
2021/04/22 00:46:25;;;;;;;16.50;2.30;;;4.40;92.00;;;;;;5037740;28;20033;-70
2021/04/22 00:48:53;;;;;;;13.80;3.15;;;4.40;91.50;;;;;;5019608;28;20448;-70
2021/04/22 00:51:21;;;;;;;24.83;4.97;;;4.40;91.70;;;;;;5037304;28;20026;-70
2021/04/22 00:53:48;;;;;;;15.73;3.88;;;4.50;91.40;;;;;;5037643;28;20026;-70
2021/04/22 00:56:17;;;;;;;14.45;4.30;;;4.50;91.10;;;;;;5037069;28;20018;-70
2021/04/22 00:58:44;;;;;;;18.95;3.53;;;4.50;91.30;;;;;;5037243;28;20420;-70
2021/04/22 01:01:12;;;;;;;13.38;3.08;;;4.50;91.20;;;;;;5036756;28;20057;-70
2021/04/22 01:03:40;;;;;;;21.13;3.58;;;4.50;91.20;;;;;;5037795;28;20321;-70
2021/04/22 01:06:09;;;;;;;23.30;3.33;;;4.50;91.10;;;;;;5037830;28;20083;-70
2021/04/22 01:08:37;;;;;;;20.50;2.80;;;4.50;90.80;;;;;;5037519;28;20425;-70
2021/04/22 01:11:06;;;;;;;14.82;3.08;;;4.60;90.80;;;;;;5020321;28;20025;-70
2021/04/22 01:13:34;;;;;;;10.50;3.75;;;4.60;90.50;;;;;;5037688;28;20021;-70
2021/04/22 01:16:01;;;;;;;17.30;4.45;;;4.60;89.80;;;;;;5038210;28;20021;-70
2021/04/22 01:18:30;;;;;;;10.00;2.88;;;4.60;90.00;;;;;;5036955;28;20104;-70
2021/04/22 01:21:02;;;;;;;12.63;2.83;;;4.60;89.80;;;;;;5020248;28;20036;-70
2021/04/22 01:23:29;;;;;;;18.73;5.13;;;4.60;89.00;;;;;;5036970;28;20045;-70
2021/04/22 01:25:57;;;;;;;11.55;2.65;;;4.60;87.70;;;;;;5037090;28;20026;-70
2021/04/22 01:28:27;;;;;;;10.35;2.90;;;4.60;87.70;;;;;;5036405;28;20032;-70
2021/04/22 01:30:56;;;;;;;10.98;2.38;;;4.60;88.60;;;;;;5037050;28;20025;-71
2021/04/22 01:33:29;;;;;;;13.23;3.58;;;4.60;89.20;;;;;;5019063;28;20044;-70
2021/04/22 01:35:58;;;;;;;17.77;3.22;;;4.50;89.60;;;;;;5019003;28;20341;-70
2021/04/22 01:38:30;;;;;;;14.20;2.38;;;4.50;88.90;;;;;;5018961;28;20095;-70
2021/04/22 01:40:58;;;;;;;22.00;3.28;;;4.50;89.00;;;;;;5036609;28;20057;-70
2021/04/22 01:43:27;;;;;;;13.48;3.78;;;4.60;87.60;;;;;;5036474;28;20136;-71
2021/04/22 01:45:55;;;;;;;17.33;2.83;;;4.50;88.20;;;;;;5019879;28;20026;-70
2021/04/22 01:48:24;;;;;;;15.85;3.83;;;4.50;88.70;;;;;;5019676;28;20056;-70
2021/04/22 01:50:54;;;;;;;17.88;2.50;;;4.60;89.10;;;;;;5037448;28;20033;-71
2021/04/22 01:53:22;;;;;;;11.98;3.00;;;4.60;89.80;;;;;;5037714;28;20017;-71
2021/04/22 01:55:53;;;;;;;12.48;2.47;;;4.60;90.20;;;;;;5037214;28;20030;-70
2021/04/22 01:58:23;;;;;;;14.02;2.78;;;4.60;90.80;;;;;;5019641;28;20477;-70
2021/04/22 02:00:55;;;;;;;20.20;3.17;;;4.50;91.50;;;;;;5037803;28;20026;-70
2021/04/22 02:03:25;;;;;;;14.98;3.38;;;4.50;91.70;;;;;;4997471;28;20133;-70
2021/04/22 02:05:53;;;;;;;16.30;3.00;;;4.50;92.20;;;;;;4995783;28;20022;-70
2021/04/22 02:08:20;;;;;;;15.07;2.42;;;4.50;92.70;;;;;;4996780;28;20093;-70
2021/04/22 02:10:49;;;;;;;14.45;3.63;;;4.40;92.20;;;;;;4996986;28;20015;-70
2021/04/22 02:13:21;;;;;;;16.58;3.03;;;4.40;92.50;;;;;;4996760;28;20122;-70
2021/04/22 02:15:49;;;;;;;15.85;3.08;;;4.40;92.90;;;;;;4996840;28;20025;-70
2021/04/22 02:18:17;;;;;;;20.15;2.88;;;4.40;93.40;;;;;;4997334;28;20481;-70
2021/04/22 02:20:46;;;;;;;10.63;2.10;;;4.30;93.50;;;;;;4997382;28;20296;-70
2021/04/22 02:23:16;;;;;;;14.55;2.35;;;4.30;93.60;;;;;;4996282;28;20102;-70
2021/04/22 02:25:46;;;;;;;18.58;2.90;;;4.30;93.80;;;;;;4997046;28;20015;-70
2021/04/22 02:28:15;;;;;;;19.42;2.83;;;4.20;94.10;;;;;;4998550;28;20019;-71
2021/04/22 02:30:44;;;;;;;19.63;2.60;;;4.20;94.00;;;;;;5001450;28;20022;-70
2021/04/22 02:33:16;;;;;;;18.20;2.97;;;4.20;94.10;;;;;;5001247;28;20054;-70
2021/04/22 02:35:46;;;;;;;16.52;2.92;;;4.20;94.10;;;;;;5001244;28;20411;-70
2021/04/22 02:38:14;;;;;;;12.82;2.45;;;4.20;94.20;;;;;;5001682;28;20350;-70
2021/04/22 02:40:46;;;;;;;12.18;3.03;;;4.20;94.30;;;;;;5001993;28;20026;-70
2021/04/22 02:43:15;;;;;;;23.65;4.80;;;4.20;94.40;;;;;;4999995;28;20023;-70
2021/04/22 02:45:52;;;;;;;13.48;2.70;;;4.20;94.70;;;;;;5000673;28;20105;-70
2021/04/22 02:48:22;;;;;;;18.50;3.17;;;4.20;94.50;;;;;;5000508;28;20026;-70
2021/04/22 02:50:52;;;;;;;8.98;2.88;;;4.20;94.60;;;;;;4999104;28;20319;-71
2021/04/22 02:53:21;;;;;;;24.10;4.30;;;4.20;94.60;;;;;;5000543;28;20045;-70
2021/04/22 02:55:49;;;;;;;14.57;2.95;;;4.20;94.60;;;;;;4999985;28;20022;-70
2021/04/22 02:58:17;;;;;;;17.00;2.95;;;4.20;94.50;;;;;;5000428;28;20027;-70
2021/04/22 03:00:46;;;;;;;11.75;3.03;;;4.20;94.30;;;;;;5000581;28;20026;-70
2021/04/22 03:03:15;;;;;;;13.50;3.28;;;4.20;94.60;;;;;;5036902;28;20341;-70
2021/04/22 03:05:44;;;;;;;13.18;3.05;;;4.20;94.80;;;;;;5039127;28;20026;-71
2021/04/22 03:08:11;;;;;;;16.50;3.30;;;4.20;94.90;;;;;;5039870;28;20096;-70
2021/04/22 03:10:40;;;;;;;17.50;3.10;;;4.20;94.80;;;;;;5040090;28;20028;-70
2021/04/22 03:13:08;;;;;;;10.68;2.60;;;4.20;94.90;;;;;;5040121;28;20452;-70
2021/04/22 03:15:37;;;;;;;15.82;3.20;;;4.20;94.90;;;;;;5040140;28;20025;-70
2021/04/22 03:18:07;;;;;;;16.67;3.33;;;4.20;95.20;;;;;;5039751;28;20105;-70
2021/04/22 03:20:34;;;;;;;21.98;3.38;;;4.20;95.00;;;;;;5039873;28;20485;-70
2021/04/22 03:23:02;;;;;;;14.10;3.15;;;4.20;95.00;;;;;;5040188;28;20028;-70
2021/04/22 03:25:30;;;;;;;14.07;2.85;;;4.20;95.20;;;;;;5039639;28;20013;-70
2021/04/22 03:27:58;;;;;;;12.50;2.45;;;4.20;95.10;;;;;;5038964;28;20013;-71
2021/04/22 03:30:31;;;;;;;16.23;2.80;;;4.20;95.00;;;;;;5039250;28;20022;-70
2021/04/22 03:32:59;;;;;;;10.15;2.58;;;4.10;95.10;;;;;;5038608;28;20026;-70
2021/04/22 03:35:28;;;;;;;11.80;2.65;;;4.20;95.10;;;;;;5038678;28;20033;-70
2021/04/22 03:37:56;;;;;;;13.20;2.30;;;4.10;95.00;;;;;;5039056;28;20018;-70
2021/04/22 03:40:25;;;;;;;17.65;3.65;;;4.10;95.00;;;;;;5037849;28;20025;-70
2021/04/22 03:42:54;;;;;;;15.38;3.60;;;4.10;94.90;;;;;;5038386;28;20445;-70
2021/04/22 03:45:23;;;;;;;15.82;3.10;;;4.20;95.00;;;;;;5038926;28;20029;-70
2021/04/22 03:47:50;;;;;;;9.27;2.28;;;4.20;95.20;;;;;;5038941;28;20022;-70
2021/04/22 03:50:19;;;;;;;15.82;2.63;;;4.20;95.20;;;;;;5039000;28;20021;-70
2021/04/22 03:52:48;;;;;;;10.35;2.70;;;4.20;95.40;;;;;;5039109;28;20052;-70
2021/04/22 03:55:17;;;;;;;13.63;2.97;;;4.20;95.50;;;;;;5039298;28;20026;-70
2021/04/22 03:57:46;;;;;;;9.07;2.70;;;4.20;95.50;;;;;;5039601;28;20021;-70
2021/04/22 04:00:17;;;;;;;16.90;2.55;;;4.20;95.40;;;;;;5021428;28;20060;-70
2021/04/22 04:02:46;;;;;;;17.25;2.78;;;4.20;95.20;;;;;;5017923;28;20050;-70
2021/04/22 04:05:14;;;;;;;15.50;3.20;;;4.20;95.20;;;;;;5018008;28;20029;-71
2021/04/22 04:07:42;;;;;;;8.85;2.63;;;4.20;95.10;;;;;;5018811;28;20026;-70
2021/04/22 04:10:12;;;;;;;16.80;2.50;;;4.20;95.10;;;;;;5017985;28;20026;-70
2021/04/22 04:12:40;;;;;;;14.05;2.47;;;4.10;95.20;;;;;;5017914;28;20029;-70
2021/04/22 04:15:09;;;;;;;12.48;3.05;;;4.20;95.40;;;;;;5018153;28;20018;-70
2021/04/22 04:17:38;;;;;;;10.02;2.95;;;4.20;95.20;;;;;;5017918;28;20330;-70
2021/04/22 04:20:08;;;;;;;12.55;2.80;;;4.20;95.30;;;;;;5017880;28;20426;-70
2021/04/22 04:22:36;;;;;;;16.05;4.00;;;4.20;95.30;;;;;;5018142;28;20075;-70
2021/04/22 04:25:05;;;;;;;14.27;3.55;;;4.10;95.50;;;;;;5017369;28;20022;-70
2021/04/22 04:27:33;;;;;;;10.30;2.35;;;4.10;95.70;;;;;;5018021;28;20448;-70
2021/04/22 04:30:01;;;;;;;10.55;2.67;;;4.10;95.70;;;;;;5017821;28;20026;-70
2021/04/22 04:32:29;;;;;;;18.45;3.08;;;4.10;95.50;;;;;;5017489;28;20026;-70
2021/04/22 04:34:57;;;;;;;13.32;3.33;;;4.20;95.90;;;;;;5018466;28;20026;-70
2021/04/22 04:37:25;;;;;;;14.98;3.05;;;4.20;95.80;;;;;;5018665;28;20417;-70
2021/04/22 04:39:53;;;;;;;16.52;2.53;;;4.20;96.00;;;;;;5018875;28;20021;-71
2021/04/22 04:42:22;;;;;;;13.57;3.45;;;4.20;96.20;;;;;;5017354;28;20426;-69
2021/04/22 04:44:50;;;;;;;8.50;3.40;;;4.20;96.00;;;;;;5018636;28;20034;-70
2021/04/22 04:47:18;;;;;;;17.17;4.90;;;4.20;96.10;;;;;;5017449;28;20057;-70
2021/04/22 04:49:47;;;;;;;17.15;4.05;;;4.20;96.20;;;;;;5017439;28;20029;-70
2021/04/22 04:52:14;;;;;;;13.95;2.92;;;4.30;96.60;;;;;;5016577;28;20029;-69
2021/04/22 04:54:42;;;;;;;15.57;3.05;;;4.30;96.40;;;;;;5017621;28;20102;-70
2021/04/22 04:57:12;;;;;;;12.85;3.08;;;4.30;96.20;;;;;;5017861;28;20391;-70
2021/04/22 04:59:39;;;;;;;19.83;3.05;;;4.30;96.40;;;;;;5017318;28;20116;-69
2021/04/22 05:02:07;;;;;;;10.30;2.50;;;4.40;96.30;;;;;;5026173;28;20095;-70
2021/04/22 05:04:34;;;;;;;12.98;3.22;;;4.40;96.10;;;;;;5036925;28;20025;-70
2021/04/22 05:07:01;;;;;;;12.15;3.75;;;4.40;95.90;;;;;;5036923;28;20322;-70
2021/04/22 05:09:29;;;;;;;16.90;2.63;;;4.40;95.70;;;;;;5036960;28;20029;-70
2021/04/22 05:11:58;;;;;;;21.35;3.35;;;4.50;95.30;;;;;;5038229;28;20044;-70
2021/04/22 05:14:27;;;;;;;18.52;3.10;;;4.50;95.00;;;;;;5037720;28;20021;-70
2021/04/22 05:16:55;;;;;;;13.73;3.03;;;4.60;95.00;;;;;;5038353;28;20402;-70
2021/04/22 05:19:23;;;;;;;22.38;3.88;;;4.60;94.70;;;;;;5037656;28;20117;-70
2021/04/22 05:21:51;;;;;;;11.90;2.40;;;4.60;94.30;;;;;;5038114;28;20033;-70
2021/04/22 05:24:19;;;;;;;21.25;3.20;;;4.70;93.70;;;;;;5037586;28;20075;-70
2021/04/22 05:26:47;;;;;;;13.15;4.40;;;4.70;93.50;;;;;;5038262;28;20186;-70
2021/04/22 05:29:15;;;;;;;15.35;2.45;;;4.80;93.60;;;;;;5037002;28;20421;-70
2021/04/22 05:31:43;;;;;;;7.93;2.15;;;4.80;93.60;;;;;;5019163;28;20027;-70
2021/04/22 05:34:11;;;;;;;17.00;3.03;;;4.80;93.30;;;;;;5036495;28;20021;-70
2021/04/22 05:36:39;;;;;;;15.00;2.83;;;4.80;93.90;;;;;;5036672;28;20028;-70
2021/04/22 05:39:07;;;;;;;11.52;2.50;;;4.90;93.70;;;;;;5036452;28;20035;-70
2021/04/22 05:41:35;;;;;;;12.85;2.38;;;4.90;93.10;;;;;;5036404;28;20029;-70
2021/04/22 05:44:03;;;;;;;13.68;2.20;;;5.00;93.20;;;;;;5036456;28;20322;-70
2021/04/22 05:46:31;;;;;;;18.60;2.83;;;5.00;93.20;;;;;;5037102;28;20306;-70
2021/04/22 05:48:59;;;;;;;14.85;1.98;;;5.10;93.00;;;;;;5036255;28;20337;-70
2021/04/22 05:51:27;;;;;;;9.95;3.10;;;5.10;92.60;;;;;;5019225;28;20018;-70
2021/04/22 05:53:55;;;;;;;8.20;2.10;;;5.20;92.00;;;;;;5019632;28;20049;-70
2021/04/22 05:56:23;;;;;;;8.23;2.10;;;5.30;91.50;;;;;;5019969;28;20037;-71
2021/04/22 05:58:51;;;;;;;9.02;2.13;;;5.40;92.10;;;;;;5019580;28;20034;-70
2021/04/22 06:01:19;;;;;;;10.60;2.00;;;5.50;91.40;;;;;;5019478;28;20483;-69
2021/04/22 06:03:46;;;;;;;12.05;2.20;;;5.70;90.80;;;;;;5038677;28;20112;-70
2021/04/22 06:06:14;;;;;;;12.60;3.10;;;5.70;90.10;;;;;;5024268;28;20036;-70
2021/04/22 06:08:41;;;;;;;15.95;2.95;;;5.70;90.20;;;;;;5042857;28;20025;-70
2021/04/22 06:11:09;;;;;;;16.50;3.65;;;5.80;89.60;;;;;;5041136;28;20044;-70
2021/04/22 06:13:36;;;;;;;12.38;2.83;;;5.90;89.50;;;;;;5022754;28;20108;-70
2021/04/22 06:16:04;;;;;;;9.30;1.88;;;6.00;88.70;;;;;;5040179;28;20017;-70
2021/04/22 06:18:31;;;;;;;14.57;2.58;;;6.00;87.50;;;;;;5040646;28;20029;-70
2021/04/22 06:20:59;;;;;;;15.18;2.55;;;6.10;87.50;;;;;;5040207;28;20022;-70
2021/04/22 06:23:27;;;;;;;9.85;1.70;;;6.20;85.70;;;;;;5040035;28;20326;-70
2021/04/22 06:25:57;;;;;;;12.23;2.38;;;6.20;84.10;;;;;;5040315;28;20029;-70
2021/04/22 06:28:25;;;;;;;14.15;2.78;;;6.20;83.20;;;;;;5040428;28;20026;-70
2021/04/22 06:30:53;;;;;;;10.15;2.00;;;6.30;84.30;;;;;;5022570;28;20295;-70
2021/04/22 06:33:21;;;;;;;9.32;2.58;;;6.30;83.30;;;;;;5039951;28;20072;-70
2021/04/22 06:36:09;;;;;;;8.80;2.40;;;6.30;83.30;;;;;;5045027;28;20298;-70
2021/04/22 06:38:37;;;;;;;9.00;1.85;;;6.50;81.50;;;;;;5040573;28;20096;-70
2021/04/22 06:41:05;;;;;;;18.67;3.33;;;6.50;81.30;;;;;;5040500;28;20036;-70
2021/04/22 06:43:32;;;;;;;10.05;2.30;;;6.60;81.60;;;;;;5040925;28;20025;-71
2021/04/22 06:46:00;;;;;;;6.55;2.05;;;6.70;80.70;;;;;;5040623;28;20108;-71
2021/04/22 06:48:29;;;;;;;12.20;2.33;;;6.80;80.00;;;;;;5040300;28;20394;-71
2021/04/22 06:50:57;;;;;;;7.38;1.45;;;6.80;79.80;;;;;;5040156;28;20052;-71
2021/04/22 06:53:26;;;;;;;14.30;2.22;;;6.90;77.80;;;;;;5039657;28;20128;-72
2021/04/22 06:55:54;;;;;;;13.88;2.47;;;6.90;77.20;;;;;;5039650;28;20018;-71
2021/04/22 06:58:22;;;;;;;13.85;1.45;;;7.00;77.20;;;;;;5039286;28;20026;-72
2021/04/22 07:00:51;;;;;;;9.60;2.22;;;7.10;77.80;;;;;;5039256;28;20314;-72
2021/04/22 07:03:19;;;;;;;8.73;1.80;;;7.20;78.20;;;;;;5038830;28;20100;-72
2021/04/22 07:05:47;;;;;;;15.63;2.03;;;7.30;75.90;;;;;;5039409;28;20021;-72
2021/04/22 07:08:15;;;;;;;10.80;2.83;;;7.40;77.00;;;;;;5021395;28;20021;-72
2021/04/22 07:10:43;;;;;;;11.43;2.22;;;7.40;75.10;;;;;;5021442;28;20105;-72
2021/04/22 07:13:12;;;;;;;8.80;2.03;;;7.40;74.70;;;;;;5039595;28;20390;-72
2021/04/22 07:15:40;;;;;;;14.23;1.92;;;7.40;76.60;;;;;;5039130;28;20124;-72
2021/04/22 07:18:08;;;;;;;8.45;2.00;;;7.50;76.80;;;;;;5039534;28;20029;-72
2021/04/22 07:20:36;;;;;;;8.05;1.70;;;7.50;76.20;;;;;;5040460;28;20053;-72
2021/04/22 07:23:04;;;;;;;11.48;1.77;;;7.50;75.50;;;;;;5022151;28;20382;-72
2021/04/22 07:25:34;;;;;;;9.70;2.10;;;7.60;75.90;;;;;;5039825;28;20022;-72
2021/04/22 07:28:05;;;;;;;15.73;2.92;;;7.60;76.50;;;;;;5040191;28;20402;-72
2021/04/22 07:30:33;;;;;;;13.13;1.42;;;7.70;76.00;;;;;;5039588;28;20026;-71
2021/04/22 07:33:01;;;;;;;9.93;2.65;;;7.80;76.30;;;;;;5021632;28;20021;-72
2021/04/22 07:35:28;;;;;;;13.35;2.05;;;7.90;75.80;;;;;;5038667;28;20018;-72
2021/04/22 07:37:56;;;;;;;11.38;1.65;;;7.90;74.70;;;;;;5039145;28;20028;-72
2021/04/22 07:40:26;;;;;;;6.22;1.48;;;8.00;73.90;;;;;;5020943;28;20032;-72
2021/04/22 07:42:53;;;;;;;9.77;2.35;;;8.00;74.20;;;;;;5021144;28;20022;-72
2021/04/22 07:45:33;;;;;;;9.60;1.55;;;8.00;74.70;;;;;;5039146;28;20101;-71
2021/04/22 07:48:03;;;;;;;8.07;1.77;;;8.00;73.60;;;;;;5038398;28;20027;-72
2021/04/22 07:50:32;;;;;;;8.57;1.73;;;8.00;74.00;;;;;;5038540;28;20048;-71
2021/04/22 07:53:01;;;;;;;12.73;2.65;;;8.00;72.60;;;;;;5020717;28;20027;-71
2021/04/22 07:55:33;;;;;;;10.23;1.20;;;8.00;73.50;;;;;;5039656;28;20018;-71
2021/04/22 07:58:03;;;;;;;13.95;1.83;;;8.10;72.60;;;;;;5039076;28;20071;-72
2021/04/22 08:00:32;;;;;;;12.68;1.73;;;8.20;72.30;;;;;;5039074;28;20108;-71
2021/04/22 08:03:01;;;;;;;9.25;1.48;;;8.40;72.50;;;;;;5038835;28;20457;-71
2021/04/22 08:05:33;;;;;;;12.52;1.65;;;8.60;71.60;;;;;;5039641;28;20030;-72
2021/04/22 08:08:01;;;;;;;9.10;1.42;;;8.80;70.30;;;;;;5021458;28;20025;-72
2021/04/22 08:10:30;;;;;;;8.32;1.40;;;8.90;68.70;;;;;;5039090;28;20029;-71
2021/04/22 08:13:02;;;;;;;11.93;1.83;;;9.00;69.50;;;;;;5038674;28;20104;-72
2021/04/22 08:15:33;;;;;;;9.82;2.30;;;9.00;68.20;;;;;;5037963;28;20425;-72
2021/04/22 08:18:02;;;;;;;8.32;1.23;;;8.90;68.20;;;;;;5037807;28;20017;-70
2021/04/22 08:20:31;;;;;;;8.63;1.77;;;8.90;68.00;;;;;;5037812;28;20067;-69
2021/04/22 08:23:00;;;;;;;12.02;2.03;;;8.90;67.20;;;;;;5038217;28;20029;-70
2021/04/22 08:25:31;;;;;;;9.25;1.90;;;8.90;66.20;;;;;;5037819;28;20094;-71
2021/04/22 08:28:01;;;;;;;8.43;1.50;;;8.70;65.40;;;;;;5037804;28;20029;-70
2021/04/22 08:30:32;;;;;;;7.68;1.83;;;8.60;65.90;;;;;;5038062;28;20026;-71
2021/04/22 08:33:02;;;;;;;7.28;2.10;;;8.70;67.60;;;;;;5020018;28;20025;-71
2021/04/22 08:35:30;;;;;;;8.40;2.38;;;8.70;67.70;;;;;;5037779;28;20447;-71
2021/04/22 08:37:59;;;;;;;13.63;1.90;;;8.80;68.20;;;;;;5038452;28;20056;-70
2021/04/22 08:40:27;;;;;;;7.10;1.35;;;8.90;66.50;;;;;;5038900;28;20022;-70
2021/04/22 08:42:57;;;;;;;7.45;1.80;;;9.00;67.60;;;;;;5020784;28;20032;-71
2021/04/22 08:45:25;;;;;;;4.25;1.63;;;9.10;67.20;;;;;;5038462;28;20104;-71
2021/04/22 08:47:53;;;;;;;7.72;1.85;;;9.00;67.20;;;;;;5038761;28;20032;-71
2021/04/22 08:50:28;;;;;;;10.60;1.88;;;9.00;68.90;;;;;;5038361;28;20026;-70
2021/04/22 08:53:00;;;;;;;11.50;1.92;;;8.90;68.10;;;;;;5020617;28;20049;-70
2021/04/22 08:55:33;;;;;;;8.10;1.80;;;9.00;67.30;;;;;;5037517;28;20080;-71
2021/04/22 08:58:04;;;;;;;12.50;2.55;;;8.90;65.20;;;;;;5037147;28;20032;-70
2021/04/22 09:00:40;;;;;;;6.28;1.92;;;8.90;64.90;;;;;;5038003;28;20097;-71
2021/04/22 09:03:08;;;;;;;7.05;1.95;;;8.90;65.70;;;;;;5036791;28;20049;-71
2021/04/22 09:05:36;;;;;;;11.15;2.05;;;9.00;66.70;;;;;;5037174;28;20033;-71
2021/04/22 09:08:04;;;;;;;8.13;2.30;;;9.10;66.00;;;;;;5036974;28;20032;-71
2021/04/22 09:10:33;;;;;;;8.60;2.40;;;9.20;67.80;;;;;;5036999;28;20329;-71
2021/04/22 09:13:12;;;;;;;13.30;2.58;;;9.20;67.30;;;;;;5036750;28;20017;-70
2021/04/22 09:15:43;;;;;;;5.00;1.98;;;9.20;65.00;;;;;;5037082;28;20402;-70
2021/04/22 09:18:17;;;;;;;6.80;1.65;;;9.10;65.90;;;;;;5037367;28;20025;-70
2021/04/22 09:20:49;;;;;;;10.35;2.65;;;9.10;66.30;;;;;;5038246;28;20112;-70
2021/04/22 09:23:24;;;;;;;13.52;2.05;;;9.20;66.90;;;;;;5020129;28;20029;-70
2021/04/22 09:26:11;;;;;;;13.15;2.10;;;9.40;65.30;;;;;;5037636;28;20018;-70
2021/04/22 09:28:46;;;;;;;8.38;1.75;;;9.50;66.20;;;;;;5037526;28;20026;-70
2021/04/22 09:31:27;;;;;;;11.57;2.22;;;9.50;63.60;;;;;;5038057;28;20029;-70
2021/04/22 09:34:12;;;;;;;12.55;2.28;;;9.60;66.20;;;;;;5037415;28;20485;-70
2021/04/22 09:36:44;;;;;;;10.77;2.40;;;9.60;65.70;;;;;;5037536;28;20022;-70
2021/04/22 09:39:13;;;;;;;10.15;2.08;;;9.70;66.10;;;;;;5035895;28;20025;-70
2021/04/22 09:41:41;;;;;;;13.98;2.25;;;9.70;67.20;;;;;;5036731;28;20430;-71
2021/04/22 09:44:11;;;;;;;11.95;2.20;;;9.80;67.30;;;;;;5037322;28;20109;-70
2021/04/22 09:46:45;;;;;;;7.53;1.92;;;9.90;67.50;;;;;;5036345;28;20034;-71
2021/04/22 09:49:20;;;;;;;8.98;2.30;;;9.80;65.30;;;;;;5036180;28;20018;-70
2021/04/22 09:51:49;;;;;;;9.35;2.80;;;9.70;63.00;;;;;;5036207;28;20021;-71
2021/04/22 09:54:20;;;;;;;8.77;2.60;;;9.70;62.80;;;;;;5036885;28;20104;-70
2021/04/22 09:56:53;;;;;;;9.55;1.80;;;9.80;62.80;;;;;;5018809;28;20373;-71
2021/04/22 09:59:23;;;;;;;13.27;2.28;;;9.90;63.20;;;;;;5036655;28;20029;-71
2021/04/22 10:02:07;;;;;;;9.52;2.22;;;10.10;64.50;;;;;;5037341;28;20394;-71
2021/04/22 10:04:44;;;;;;;15.52;3.10;;;10.20;65.10;;;;;;5037116;28;20033;-70
2021/04/22 10:07:30;;;;;;;11.63;2.58;;;10.30;65.00;;;;;;5019618;28;20022;-70
2021/04/22 10:10:14;;;;;;;9.02;1.85;;;10.20;64.30;;;;;;5037107;28;20029;-70
2021/04/22 10:12:42;;;;;;;12.93;3.05;;;10.10;64.00;;;;;;5039186;28;20360;-72
2021/04/22 10:15:22;;;;;;;6.40;1.65;;;9.90;65.60;;;;;;5037082;28;20030;-71
2021/04/22 10:17:59;;;;;;;14.63;2.25;;;10.00;63.30;;;;;;5019223;28;20417;-71
2021/04/22 10:20:29;;;;;;;7.28;2.00;;;10.10;62.10;;;;;;5036199;28;20349;-71
2021/04/22 10:22:57;;;;;;;14.50;2.20;;;10.30;59.90;;;;;;5018573;28;20031;-71
2021/04/22 10:25:28;;;;;;;9.20;2.40;;;10.40;61.10;;;;;;5036640;28;20113;-72
2021/04/22 10:28:07;;;;;;;7.50;2.05;;;10.50;58.80;;;;;;5036405;28;20053;-72
2021/04/22 10:30:37;;;;;;;6.30;1.90;;;10.60;58.60;;;;;;5036549;28;20051;-72
2021/04/22 10:33:06;;;;;;;7.25;1.60;;;10.50;58.60;;;;;;5036407;28;20025;-72
2021/04/22 10:35:36;;;;;;;8.52;2.05;;;10.50;59.20;;;;;;5035786;28;20303;-71
2021/04/22 10:38:05;;;;;;;8.55;1.98;;;10.50;59.70;;;;;;5036134;28;20030;-71
2021/04/22 10:40:37;;;;;;;12.13;2.20;;;10.50;56.70;;;;;;5036862;28;20329;-72
2021/04/22 10:43:07;;;;;;;13.55;2.40;;;10.60;61.60;;;;;;5036589;28;20101;-71
2021/04/22 10:45:39;;;;;;;12.48;1.90;;;10.60;59.70;;;;;;5037205;28;20022;-71
2021/04/22 10:48:08;;;;;;;13.48;2.08;;;10.60;62.10;;;;;;5019326;28;20025;-71
2021/04/22 10:50:38;;;;;;;6.10;1.90;;;10.60;62.60;;;;;;5039543;28;20056;-72
2021/04/22 10:53:15;;;;;;;9.77;2.45;;;10.70;58.70;;;;;;5040370;28;20025;-72
2021/04/22 10:55:44;;;;;;;10.77;2.03;;;10.80;58.80;;;;;;5040743;28;20029;-70
2021/04/22 10:58:32;;;;;;;10.02;2.22;;;11.00;59.90;;;;;;5039585;28;20065;-69
2021/04/22 11:01:03;;;;;;;10.50;2.38;;;11.20;59.50;;;;;;5039227;28;20030;-70
2021/04/22 11:03:39;;;;;;;12.30;2.40;;;11.20;59.70;;;;;;5039307;28;20056;-70
2021/04/22 11:06:12;;;;;;;12.77;2.55;;;11.40;58.70;;;;;;5039024;28;20032;-70
2021/04/22 11:08:45;;;;;;;9.65;2.17;;;11.40;58.90;;;;;;5039353;28;20036;-70
2021/04/22 11:11:24;;;;;;;10.63;2.63;;;11.30;57.70;;;;;;5039064;28;20021;-69
2021/04/22 11:14:12;;;;;;;13.05;2.70;;;11.20;59.70;;;;;;5039775;28;20063;-71
2021/04/22 11:16:52;;;;;;;9.35;2.33;;;11.30;60.10;;;;;;5039161;28;20033;-70
2021/04/22 11:19:36;;;;;;;10.50;2.00;;;11.40;58.50;;;;;;5039184;28;20021;-69
2021/04/22 11:22:15;;;;;;;12.13;3.42;;;11.70;58.30;;;;;;5040000;28;20480;-70
2021/04/22 11:24:54;;;;;;;11.57;3.85;;;11.80;56.80;;;;;;5040340;28;20426;-72
2021/04/22 11:27:23;;;;;;;10.73;2.13;;;11.90;57.10;;;;;;5039682;28;20052;-72
2021/04/22 11:29:51;;;;;;;12.00;2.63;;;11.90;56.60;;;;;;5039824;28;20056;-70
2021/04/22 11:32:32;;;;;;;8.38;2.42;;;11.80;54.60;;;;;;5040188;28;20021;-68
2021/04/22 11:35:15;;;;;;;7.57;2.28;;;11.70;56.10;;;;;;5040018;28;20382;-69
2021/04/22 11:37:55;;;;;;;11.73;2.05;;;11.70;59.00;;;;;;5039846;28;20025;-69
2021/04/22 11:40:27;;;;;;;8.45;3.25;;;11.70;57.90;;;;;;5039151;28;20025;-69
2021/04/22 11:42:56;;;;;;;11.18;3.05;;;11.60;56.70;;;;;;5038610;28;20026;-69
2021/04/22 11:45:30;;;;;;;5.47;1.83;;;11.60;57.00;;;;;;5038397;28;20030;-69
2021/04/22 11:48:01;;;;;;;13.57;2.92;;;11.70;57.60;;;;;;5038645;28;20022;-69
2021/04/22 11:50:41;;;;;;;9.55;2.13;;;12.00;55.60;;;;;;5038042;28;20033;-69
2021/04/22 11:53:21;;;;;;;9.88;2.67;;;12.20;56.30;;;;;;5038441;28;20330;-70
2021/04/22 11:58:22;;;;;;;8.93;2.45;;;12.50;55.10;;;;;;4979938;28;20058;-70
2021/04/22 12:00:54;;;;;;;16.40;3.50;;;12.60;54.50;;;;;;4979549;28;20022;-70
2021/04/22 12:03:30;;;;;;;17.15;2.70;;;12.70;54.50;;;;;;4979641;28;20015;-70
2021/04/22 12:06:05;;;;;;;16.70;2.65;;;12.80;54.60;;;;;;4967260;28;20027;-70
2021/04/22 12:08:41;;;;;;;8.05;2.40;;;13.00;55.60;;;;;;4960455;29;20043;-70
2021/04/22 12:11:14;;;;;;;11.23;3.15;;;13.10;53.40;;;;;;4942870;29;20031;-70
2021/04/22 12:13:42;;;;;;;9.38;2.70;;;12.90;53.30;;;;;;4960620;29;20031;-70
2021/04/22 12:16:10;;;;;;;12.52;2.22;;;12.70;54.20;;;;;;4942787;29;20023;-70
2021/04/22 12:18:47;;;;;;;4.72;1.95;;;12.70;52.90;;;;;;4960636;29;20356;-70
2021/04/22 12:21:22;;;;;;;10.18;2.63;;;12.70;53.20;;;;;;4960558;28;20027;-70
2021/04/22 12:23:54;;;;;;;10.98;2.70;;;12.80;54.00;;;;;;4960596;29;20030;-70
2021/04/22 12:26:28;;;;;;;9.20;2.13;;;12.90;55.00;;;;;;4960602;29;20376;-70
2021/04/22 12:29:01;;;;;;;7.88;2.60;;;13.00;55.10;;;;;;4960944;29;20019;-70
2021/04/22 12:31:40;;;;;;;10.35;2.38;;;13.20;54.60;;;;;;4960627;29;20297;-70
2021/04/22 12:34:15;;;;;;;9.02;2.15;;;13.20;53.40;;;;;;4960342;29;20027;-70
2021/04/22 12:37:15;;;;;;;7.65;2.58;;;13.10;54.60;;;;;;4959846;28;20058;-70
2021/04/22 12:39:54;;;;;;;12.95;3.10;;;13.00;54.80;;;;;;4911710;29;20035;-70
2021/04/22 12:42:31;;;;;;;8.88;2.88;;;13.00;56.80;;;;;;4959877;29;20027;-70
2021/04/22 12:45:14;;;;;;;9.25;3.05;;;13.20;53.60;;;;;;4959461;29;20027;-70
2021/04/22 12:47:52;;;;;;;9.32;2.35;;;13.30;53.50;;;;;;4959418;29;20034;-70
2021/04/22 12:50:26;;;;;;;6.18;2.47;;;13.30;52.50;;;;;;4959087;28;20082;-70
2021/04/22 12:53:13;;;;;;;9.38;2.38;;;13.20;52.80;;;;;;4959650;29;20086;-70
2021/04/22 12:55:48;;;;;;;7.43;2.00;;;13.50;52.30;;;;;;4959627;29;20031;-70
2021/04/22 12:58:21;;;;;;;8.90;2.38;;;13.70;52.10;;;;;;4959709;29;20047;-70
2021/04/22 13:00:55;;;;;;;11.32;2.05;;;13.90;51.50;;;;;;4960475;29;20050;-70
2021/04/22 13:03:25;;;;;;;5.40;2.38;;;14.20;51.10;;;;;;4959944;29;20039;-70
2021/04/22 13:06:13;;;;;;;10.75;2.72;;;14.40;51.80;;;;;;4960295;28;20312;-70
2021/04/22 13:08:50;;;;;;;4.57;1.42;;;14.90;50.70;;;;;;4960229;29;20397;-70
2021/04/22 13:11:20;;;;;;;7.25;2.38;;;15.70;46.20;;;;;;4960263;29;20408;-70